Check out our new BloomSky Weather System.

Active alerts


No alerts


Thunder radar  blitzortung!


Rain radar more information rain snow radar


Visit our other weather sites:

Template documentation
and downloads

And another site



Weather Underground History page Text

Daily Summary for November 9, 2017 Units:  English    Metric   Both
« Previous Day
Next Day »
Daily Weekly Monthly Yearly Custom
  High: Low: Average:
Temperature: 63.3 °F 49.6 °F 55.4 °F
Dew Point: 54.1 °F 48.4 °F 51.8 °F
Humidity: 98 % 70 % 89 %
Wind Speed: 11.0 mph 0.0 mph 2.2 mph
Wind Gust: 14.0 mph - -
Wind:- - WSW
Pressure: 30.27 in 30.15 in -
Precipitation: 0.15 in    
Historical Graphs
 
 
Tabular Data for November 9, 2017
Time Temperature Dew Point Pressure Wind Wind Speed Wind Gust Humidity Rainfall Rate (Hourly)
00:04 53.8 °F 52.9 °F 30.19 in NNW 2.0 mph 8.0 mph 97 % 0.00 in
00:09 53.8 °F 52.9 °F 30.19 in NW 5.0 mph 8.0 mph 97 % 0.00 in
00:14 53.8 °F 52.9 °F 30.19 in North 3.0 mph 8.0 mph 97 % 0.00 in
00:19 53.8 °F 52.9 °F 30.18 in North 3.0 mph 7.0 mph 97 % 0.00 in
00:20 54.0 °F 53.1 °F 30.18 in NNW 1.0 mph 7.0 mph 97 % 0.00 in
00:25 54.0 °F 53.1 °F 30.18 in NW 1.0 mph 7.0 mph 97 % 0.00 in
00:30 54.0 °F 53.1 °F 30.17 in NNE 2.0 mph 5.0 mph 97 % 0.00 in
00:35 54.0 °F 53.1 °F 30.17 in NNE 1.0 mph 5.0 mph 97 % 0.00 in
00:40 54.0 °F 53.1 °F 30.17 in NW 1.0 mph 5.0 mph 97 % 0.01 in
00:45 54.0 °F 53.1 °F 30.16 in Calm   6.0 mph 97 % 0.01 in
00:50 54.0 °F 53.1 °F 30.15 in Calm   6.0 mph 97 % 0.02 in
00:55 54.0 °F 53.1 °F 30.16 in North 2.0 mph 6.0 mph 97 % 0.02 in
01:00 54.0 °F 53.1 °F 30.17 in North 2.0 mph 3.0 mph 97 % 0.03 in
01:05 54.0 °F 53.1 °F 30.17 in Calm   3.0 mph 97 % 0.03 in
01:10 54.0 °F 53.1 °F 30.17 in NNW 2.0 mph 3.0 mph 97 % 0.04 in
01:15 54.0 °F 53.1 °F 30.19 in NW 3.0 mph 4.0 mph 97 % 0.04 in
01:20 53.8 °F 52.9 °F 30.19 in NW 5.0 mph 7.0 mph 97 % 0.06 in
01:25 53.8 °F 52.9 °F 30.18 in NNW 3.0 mph 10.0 mph 97 % 0.08 in
01:30 53.8 °F 52.9 °F 30.18 in NNE 5.0 mph 10.0 mph 97 % 0.10 in
01:35 53.6 °F 52.7 °F 30.16 in NNW 3.0 mph 10.0 mph 97 % 0.12 in
01:40 53.4 °F 52.5 °F 30.17 in NW 2.0 mph 9.0 mph 97 % 0.12 in
01:45 53.4 °F 52.5 °F 30.16 in Calm   9.0 mph 97 % 0.12 in
01:50 53.4 °F 52.5 °F 30.16 in NNE 4.0 mph 8.0 mph 97 % 0.11 in
01:55 53.4 °F 52.5 °F 30.16 in NNW 2.0 mph 8.0 mph 97 % 0.11 in
02:00 53.4 °F 52.5 °F 30.17 in NW 3.0 mph 6.0 mph 97 % 0.10 in
02:05 53.4 °F 52.9 °F 30.17 in NNW 3.0 mph 6.0 mph 98 % 0.10 in
02:10 53.4 °F 52.9 °F 30.18 in Calm   6.0 mph 98 % 0.09 in
02:15 53.4 °F 52.5 °F 30.18 in North 2.0 mph 4.0 mph 97 % 0.09 in
02:20 53.6 °F 53.1 °F 30.18 in NNW 2.0 mph 4.0 mph 98 % 0.08 in
02:25 53.6 °F 53.1 °F 30.18 in Calm   3.0 mph 98 % 0.06 in
02:30 53.6 °F 53.1 °F 30.18 in NNW 3.0 mph 4.0 mph 98 % 0.04 in
02:35 53.4 °F 52.5 °F 30.18 in NW 2.0 mph 8.0 mph 97 % 0.03 in
02:40 53.2 °F 52.3 °F 30.16 in NNW 3.0 mph 9.0 mph 97 % 0.02 in
02:45 53.1 °F 52.2 °F 30.17 in NNE 2.0 mph 9.0 mph 97 % 0.02 in
02:50 53.1 °F 52.2 °F 30.18 in NNW 3.0 mph 9.0 mph 97 % 0.02 in
02:55 53.1 °F 52.5 °F 30.18 in NW 2.0 mph 8.0 mph 98 % 0.02 in
03:00 53.1 °F 52.5 °F 30.19 in NNW 1.0 mph 7.0 mph 98 % 0.02 in
03:06 53.1 °F 52.5 °F 30.19 in Calm   7.0 mph 98 % 0.02 in
03:11 53.1 °F 52.5 °F 30.18 in North 1.0 mph 6.0 mph 98 % 0.02 in
03:16 53.2 °F 52.7 °F 30.17 in North 2.0 mph 4.0 mph 98 % 0.01 in
03:21 53.1 °F 52.5 °F 30.17 in NNE 2.0 mph 7.0 mph 98 % 0.01 in
03:26 53.1 °F 52.5 °F 30.16 in NW 2.0 mph 7.0 mph 98 % 0.01 in
03:31 53.1 °F 52.5 °F 30.16 in NNW 3.0 mph 7.0 mph 98 % 0.01 in
03:36 53.1 °F 52.5 °F 30.16 in West 1.0 mph 6.0 mph 98 % 0.00 in
03:41 53.1 °F 52.5 °F 30.15 in NNE 2.0 mph 8.0 mph 98 % 0.00 in
03:46 52.9 °F 52.3 °F 30.16 in Calm   11.0 mph 98 % 0.00 in
03:51 52.9 °F 52.3 °F 30.16 in NNE 2.0 mph 11.0 mph 98 % 0.00 in
03:56 52.9 °F 52.3 °F 30.17 in NW 6.0 mph 11.0 mph 98 % 0.00 in
04:01 52.9 °F 52.0 °F 30.17 in NW 2.0 mph 8.0 mph 97 % 0.00 in
04:06 52.7 °F 51.8 °F 30.17 in NW 2.0 mph 8.0 mph 97 % 0.00 in
04:11 52.9 °F 52.0 °F 30.17 in NNW 1.0 mph 7.0 mph 97 % 0.00 in
04:16 52.7 °F 51.8 °F 30.18 in NNW 1.0 mph 7.0 mph 97 % 0.00 in
04:21 52.7 °F 51.8 °F 30.18 in North 2.0 mph 6.0 mph 97 % 0.00 in
04:26 52.9 °F 52.0 °F 30.18 in Calm   6.0 mph 97 % 0.00 in
04:31 52.9 °F 52.0 °F 30.18 in Calm   5.0 mph 97 % 0.00 in
04:36 52.9 °F 52.0 °F 30.18 in North 2.0 mph 5.0 mph 97 % 0.00 in
04:41 52.9 °F 52.0 °F 30.18 in NNW 3.0 mph 3.0 mph 97 % 0.00 in
04:46 52.9 °F 52.0 °F 30.18 in NE 5.0 mph 5.0 mph 97 % 0.00 in
04:51 52.9 °F 52.0 °F 30.18 in NW 2.0 mph 7.0 mph 97 % 0.00 in
04:56 52.9 °F 52.0 °F 30.18 in NW 2.0 mph 7.0 mph 97 % 0.00 in
05:01 52.9 °F 51.8 °F 30.18 in NW 2.0 mph 7.0 mph 96 % 0.00 in
05:06 52.9 °F 51.8 °F 30.18 in NNW 2.0 mph 6.0 mph 96 % 0.00 in
05:11 52.9 °F 51.8 °F 30.19 in NNE 4.0 mph 8.0 mph 96 % 0.00 in
05:16 52.9 °F 51.8 °F 30.19 in NW 1.0 mph 8.0 mph 96 % 0.00 in
05:21 52.9 °F 51.8 °F 30.19 in North 1.0 mph 8.0 mph 96 % 0.00 in
05:26 52.9 °F 51.8 °F 30.19 in NNW 1.0 mph 8.0 mph 96 % 0.00 in
05:31 52.9 °F 51.8 °F 30.19 in NNW 1.0 mph 8.0 mph 96 % 0.00 in
05:36 52.9 °F 51.8 °F 30.19 in NW 4.0 mph 8.0 mph 96 % 0.00 in
05:41 52.7 °F 51.6 °F 30.19 in NNW 5.0 mph 10.0 mph 96 % 0.00 in
05:46 52.5 °F 51.4 °F 30.19 in NNW 2.0 mph 12.0 mph 96 % 0.00 in
05:51 52.5 °F 51.4 °F 30.19 in NW 2.0 mph 12.0 mph 96 % 0.00 in
05:56 52.5 °F 51.4 °F 30.20 in NNW 3.0 mph 12.0 mph 96 % 0.00 in
06:01 52.5 °F 51.4 °F 30.20 in NNE 7.0 mph 9.0 mph 96 % 0.00 in
06:06 52.3 °F 50.9 °F 30.20 in North 6.0 mph 10.0 mph 95 % 0.00 in
06:11 52.3 °F 50.9 °F 30.21 in NNE 4.0 mph 12.0 mph 95 % 0.00 in
06:16 52.2 °F 50.5 °F 30.21 in NNE 11.0 mph 13.0 mph 94 % 0.00 in
06:21 52.2 °F 50.5 °F 30.20 in NW 6.0 mph 13.0 mph 94 % 0.00 in
06:26 52.0 °F 50.4 °F 30.21 in North 4.0 mph 13.0 mph 94 % 0.00 in
06:31 52.0 °F 50.4 °F 30.21 in NNE 3.0 mph 12.0 mph 94 % 0.00 in
06:36 52.0 °F 50.4 °F 30.20 in NNW 3.0 mph 9.0 mph 94 % 0.00 in
06:41 52.0 °F 50.4 °F 30.21 in NNW 2.0 mph 9.0 mph 94 % 0.00 in
06:47 52.0 °F 50.4 °F 30.21 in North 5.0 mph 9.0 mph 94 % 0.00 in
06:52 52.0 °F 50.5 °F 30.21 in Calm   8.0 mph 95 % 0.00 in
06:57 52.0 °F 50.5 °F 30.22 in NNW 1.0 mph 8.0 mph 95 % 0.00 in
07:02 52.2 °F 50.7 °F 30.22 in NNE 3.0 mph 8.0 mph 95 % 0.00 in
07:07 52.0 °F 50.5 °F 30.22 in NNE 8.0 mph 8.0 mph 95 % 0.00 in
07:12 52.0 °F 50.5 °F 30.22 in Calm   8.0 mph 95 % 0.00 in
07:17 52.0 °F 50.5 °F 30.22 in North 3.0 mph 8.0 mph 95 % 0.00 in
07:22 52.2 °F 50.7 °F 30.22 in NNE 1.0 mph 8.0 mph 95 % 0.00 in
07:27 52.2 °F 50.7 °F 30.22 in Calm   12.0 mph 95 % 0.00 in
07:32 52.2 °F 50.7 °F 30.22 in NNE 2.0 mph 12.0 mph 95 % 0.00 in
07:37 52.2 °F 50.5 °F 30.23 in NNW 2.0 mph 12.0 mph 94 % 0.00 in
07:42 52.2 °F 50.5 °F 30.23 in NW 5.0 mph 10.0 mph 94 % 0.00 in
07:47 52.0 °F 50.4 °F 30.23 in NE 5.0 mph 11.0 mph 94 % 0.00 in
07:52 52.2 °F 50.5 °F 30.23 in North 4.0 mph 11.0 mph 94 % 0.00 in
07:57 52.2 °F 50.7 °F 30.24 in NNE 7.0 mph 11.0 mph 95 % 0.00 in
08:02 52.2 °F 50.5 °F 30.23 in NW 2.0 mph 10.0 mph 94 % 0.00 in
08:07 52.2 °F 50.5 °F 30.24 in WNW 6.0 mph 11.0 mph 94 % 0.00 in
08:12 52.2 °F 50.5 °F 30.24 in WNW 1.0 mph 11.0 mph 94 % 0.00 in
08:17 52.2 °F 50.5 °F 30.24 in NNW 3.0 mph 11.0 mph 94 % 0.00 in
08:22 52.2 °F 50.5 °F 30.23 in NW 3.0 mph 9.0 mph 94 % 0.00 in
08:27 52.2 °F 50.5 °F 30.23 in NE 6.0 mph 11.0 mph 94 % 0.00 in
08:32 52.2 °F 50.5 °F 30.24 in NNW 3.0 mph 11.0 mph 94 % 0.00 in
08:37 52.2 °F 50.5 °F 30.24 in NNE 4.0 mph 11.0 mph 94 % 0.00 in
08:42 52.2 °F 50.5 °F 30.25 in WNW 1.0 mph 10.0 mph 94 % 0.00 in
08:43 52.2 °F 50.5 °F 30.25 in NNE 3.0 mph 10.0 mph 94 % 0.00 in
08:48 52.2 °F 50.5 °F 30.25 in NW 1.0 mph 10.0 mph 94 % 0.00 in
08:53 52.2 °F 50.5 °F 30.25 in North 2.0 mph 10.0 mph 94 % 0.00 in
08:58 52.3 °F 50.7 °F 30.25 in NNW 4.0 mph 10.0 mph 94 % 0.00 in
09:03 52.3 °F 50.4 °F 30.25 in NNW 3.0 mph 10.0 mph 93 % 0.00 in
09:08 52.3 °F 50.4 °F 30.25 in NNE 2.0 mph 10.0 mph 93 % 0.00 in
09:13 52.5 °F 50.5 °F 30.25 in NNW 7.0 mph 10.0 mph 93 % 0.00 in
09:18 52.5 °F 50.5 °F 30.25 in NW 3.0 mph 10.0 mph 93 % 0.00 in
09:23 52.5 °F 50.5 °F 30.25 in North 4.0 mph 10.0 mph 93 % 0.00 in
09:28 52.5 °F 50.5 °F 30.25 in NNW 1.0 mph 12.0 mph 93 % 0.00 in
09:33 52.7 °F 50.7 °F 30.26 in Calm   12.0 mph 93 % 0.00 in
09:38 52.9 °F 50.9 °F 30.25 in NW 1.0 mph 12.0 mph 93 % 0.00 in
09:43 52.7 °F 50.7 °F 30.25 in Calm   9.0 mph 93 % 0.00 in
09:48 52.9 °F 50.9 °F 30.26 in NNW 3.0 mph 9.0 mph 93 % 0.00 in
09:53 52.9 °F 50.5 °F 30.26 in NNW 5.0 mph 9.0 mph 92 % 0.00 in
09:58 53.1 °F 50.7 °F 30.26 in NE 1.0 mph 9.0 mph 92 % 0.00 in
10:03 53.1 °F 50.7 °F 30.26 in North 5.0 mph 9.0 mph 92 % 0.00 in
10:08 53.1 °F 50.7 °F 30.26 in North 6.0 mph 9.0 mph 92 % 0.00 in
10:13 53.2 °F 50.9 °F 30.27 in North 4.0 mph 8.0 mph 92 % 0.00 in
10:18 53.2 °F 50.9 °F 30.27 in NW 4.0 mph 8.0 mph 92 % 0.00 in
10:23 53.4 °F 51.1 °F 30.26 in WNW 1.0 mph 9.0 mph 92 % 0.00 in
10:28 53.4 °F 50.9 °F 30.25 in NNE 1.0 mph 9.0 mph 91 % 0.00 in
10:33 53.6 °F 51.1 °F 30.26 in Calm   9.0 mph 91 % 0.00 in
10:38 53.6 °F 51.1 °F 30.26 in NNE 2.0 mph 10.0 mph 91 % 0.00 in
10:41 53.8 °F 51.3 °F 30.25 in Calm   10.0 mph 91 % 0.00 in
10:46 54.0 °F 51.4 °F 30.25 in NNW 3.0 mph 10.0 mph 91 % 0.00 in
10:51 54.0 °F 51.4 °F 30.25 in North 1.0 mph 9.0 mph 91 % 0.00 in
10:56 54.1 °F 51.3 °F 30.25 in NNE 5.0 mph 7.0 mph 90 % 0.00 in
11:01 54.1 °F 51.3 °F 30.25 in NNE 3.0 mph 7.0 mph 90 % 0.00 in
11:06 54.5 °F 51.6 °F 30.25 in NNW 1.0 mph 7.0 mph 90 % 0.00 in
11:11 54.7 °F 51.8 °F 30.25 in NNE 2.0 mph 7.0 mph 90 % 0.00 in
11:16 54.9 °F 51.6 °F 30.25 in NE 4.0 mph 7.0 mph 89 % 0.00 in
11:21 54.9 °F 51.6 °F 30.25 in NNW 2.0 mph 9.0 mph 89 % 0.00 in
11:26 55.2 °F 51.8 °F 30.24 in NNW 2.0 mph 9.0 mph 88 % 0.00 in
11:31 55.2 °F 51.8 °F 30.24 in Calm   9.0 mph 88 % 0.00 in
11:36 55.8 °F 52.0 °F 30.24 in NNW 1.0 mph 7.0 mph 87 % 0.00 in
11:37 55.8 °F 52.3 °F 30.24 in NW 1.0 mph 7.0 mph 88 % 0.00 in
11:42 56.5 °F 52.3 °F 30.24 in East 2.0 mph 7.0 mph 86 % 0.00 in
11:47 56.7 °F 52.2 °F 30.24 in NE 4.0 mph 6.0 mph 85 % 0.00 in
11:52 56.8 °F 52.3 °F 30.24 in North 4.0 mph 5.0 mph 85 % 0.00 in
11:57 56.8 °F 52.0 °F 30.23 in East 1.0 mph 5.0 mph 84 % 0.00 in
12:02 57.4 °F 52.3 °F 30.22 in NNE 2.0 mph 6.0 mph 83 % 0.00 in
12:07 57.7 °F 52.7 °F 30.22 in North 4.0 mph 6.0 mph 83 % 0.00 in
12:12 58.3 °F 53.1 °F 30.22 in NNW 4.0 mph 6.0 mph 83 % 0.00 in
12:17 58.6 °F 53.2 °F 30.21 in Calm   6.0 mph 82 % 0.00 in
12:22 58.8 °F 52.7 °F 30.21 in North 1.0 mph 6.0 mph 80 % 0.00 in
12:27 59.0 °F 53.2 °F 30.21 in NW 1.0 mph 6.0 mph 81 % 0.00 in
12:32 58.6 °F 52.5 °F 30.20 in NNW 4.0 mph 6.0 mph 80 % 0.00 in
12:37 58.5 °F 53.1 °F 30.21 in Calm   7.0 mph 82 % 0.00 in
12:42 59.2 °F 53.1 °F 30.21 in North 2.0 mph 7.0 mph 80 % 0.00 in
12:47 59.9 °F 53.4 °F 30.20 in Calm   7.0 mph 79 % 0.00 in
12:52 60.3 °F 53.4 °F 30.20 in NNW 1.0 mph 6.0 mph 78 % 0.00 in
12:57 60.1 °F 53.2 °F 30.20 in North 5.0 mph 7.0 mph 78 % 0.00 in
13:02 60.4 °F 52.5 °F 30.20 in NW 2.0 mph 8.0 mph 75 % 0.00 in
13:07 60.6 °F 52.7 °F 30.19 in NNW 3.0 mph 11.0 mph 75 % 0.00 in
13:12 61.2 °F 52.9 °F 30.19 in NNE 1.0 mph 11.0 mph 74 % 0.00 in
13:17 61.3 °F 53.1 °F 30.19 in Calm   11.0 mph 74 % 0.00 in
13:23 61.9 °F 53.1 °F 30.19 in NNE 5.0 mph 11.0 mph 73 % 0.00 in
13:28 62.1 °F 53.6 °F 30.19 in North 2.0 mph 11.0 mph 74 % 0.00 in
13:33 62.2 °F 53.8 °F 30.19 in NW 5.0 mph 8.0 mph 74 % 0.00 in
13:38 62.2 °F 53.1 °F 30.19 in North 4.0 mph 9.0 mph 72 % 0.00 in
13:43 62.1 °F 53.2 °F 30.18 in NW 3.0 mph 11.0 mph 73 % 0.00 in
13:48 62.8 °F 53.6 °F 30.18 in NE 5.0 mph 11.0 mph 72 % 0.00 in
13:53 62.6 °F 53.4 °F 30.18 in ENE 5.0 mph 11.0 mph 72 % 0.00 in
13:58 62.4 °F 54.0 °F 30.18 in NNW 4.0 mph 11.0 mph 74 % 0.00 in
14:03 62.1 °F 53.6 °F 30.18 in NNW 1.0 mph 13.0 mph 74 % 0.00 in
14:08 62.4 °F 54.0 °F 30.18 in NNW 6.0 mph 13.0 mph 74 % 0.00 in
14:13 62.2 °F 53.4 °F 30.18 in NNW 4.0 mph 13.0 mph 73 % 0.00 in
14:18 62.1 °F 53.2 °F 30.18 in NNE 4.0 mph 8.0 mph 73 % 0.00 in
14:23 62.2 °F 53.4 °F 30.18 in North 2.0 mph 9.0 mph 73 % 0.00 in
14:28 62.8 °F 54.0 °F 30.18 in WNW 3.0 mph 11.0 mph 73 % 0.00 in
14:33 63.0 °F 53.8 °F 30.18 in NNW 3.0 mph 11.0 mph 72 % 0.00 in
14:38 63.3 °F 54.1 °F 30.18 in WNW 4.0 mph 11.0 mph 72 % 0.00 in
14:43 63.3 °F 53.4 °F 30.18 in North 5.0 mph 9.0 mph 70 % 0.00 in
14:48 63.0 °F 53.4 °F 30.18 in NW 4.0 mph 11.0 mph 71 % 0.00 in
14:53 63.1 °F 53.6 °F 30.18 in NNW 4.0 mph 11.0 mph 71 % 0.00 in
14:58 63.3 °F 53.8 °F 30.18 in WNW 3.0 mph 11.0 mph 71 % 0.00 in
15:03 63.3 °F 53.4 °F 30.18 in North 6.0 mph 9.0 mph 70 % 0.00 in
15:08 63.1 °F 53.6 °F 30.18 in NNW 7.0 mph 9.0 mph 71 % 0.00 in
15:13 62.8 °F 53.2 °F 30.18 in NNW 3.0 mph 12.0 mph 71 % 0.00 in
15:18 62.8 °F 53.2 °F 30.18 in NW 2.0 mph 12.0 mph 71 % 0.00 in
15:23 63.0 °F 53.8 °F 30.18 in NW 5.0 mph 12.0 mph 72 % 0.00 in
15:28 62.8 °F 53.2 °F 30.18 in NW 4.0 mph 12.0 mph 71 % 0.00 in
15:33 62.8 °F 53.6 °F 30.18 in NNW 4.0 mph 11.0 mph 72 % 0.00 in
15:38 63.0 °F 53.8 °F 30.18 in NW 3.0 mph 11.0 mph 72 % 0.00 in
15:43 63.0 °F 53.4 °F 30.18 in NW 8.0 mph 11.0 mph 71 % 0.00 in
15:48 63.0 °F 53.8 °F 30.18 in NNE 2.0 mph 11.0 mph 72 % 0.00 in
15:53 63.3 °F 53.8 °F 30.18 in NW 6.0 mph 11.0 mph 71 % 0.00 in
15:58 63.0 °F 53.4 °F 30.18 in NNW 3.0 mph 10.0 mph 71 % 0.00 in
16:03 63.0 °F 53.4 °F 30.17 in North 8.0 mph 10.0 mph 71 % 0.00 in
16:08 62.4 °F 52.9 °F 30.17 in NNW 5.0 mph 10.0 mph 71 % 0.00 in
16:13 62.2 °F 52.7 °F 30.17 in NW 6.0 mph 10.0 mph 71 % 0.00 in
16:18 62.2 °F 53.1 °F 30.17 in NW 5.0 mph 10.0 mph 72 % 0.00 in
16:23 62.2 °F 53.4 °F 30.18 in NNW 4.0 mph 9.0 mph 73 % 0.00 in
16:28 62.1 °F 53.2 °F 30.18 in NNW 5.0 mph 10.0 mph 73 % 0.00 in
16:33 62.1 °F 53.2 °F 30.18 in NNW 4.0 mph 14.0 mph 73 % 0.00 in
16:36 62.1 °F 53.2 °F 30.18 in NNW 2.0 mph 14.0 mph 73 % 0.00 in
16:41 61.9 °F 53.1 °F 30.18 in NW 5.0 mph 14.0 mph 73 % 0.00 in
16:46 61.5 °F 52.7 °F 30.18 in NW 2.0 mph 9.0 mph 73 % 0.00 in
16:51 61.5 °F 53.2 °F 30.19 in North 2.0 mph 9.0 mph 74 % 0.00 in
16:56 61.5 °F 53.2 °F 30.19 in NNW 3.0 mph 9.0 mph 74 % 0.00 in
17:01 61.3 °F 53.1 °F 30.19 in NW 5.0 mph 7.0 mph 74 % 0.00 in
17:06 61.2 °F 53.2 °F 30.19 in North 2.0 mph 6.0 mph 75 % 0.00 in
17:11 61.0 °F 53.1 °F 30.19 in NW 1.0 mph 6.0 mph 75 % 0.00 in
17:16 60.6 °F 53.1 °F 30.19 in NNW 2.0 mph 6.0 mph 76 % 0.00 in
17:21 60.4 °F 52.9 °F 30.19 in NNE 2.0 mph 6.0 mph 76 % 0.00 in
17:26 60.3 °F 53.1 °F 30.19 in NW 1.0 mph 5.0 mph 77 % 0.00 in
17:31 60.1 °F 52.9 °F 30.19 in Calm   4.0 mph 77 % 0.00 in
17:36 59.7 °F 52.5 °F 30.19 in Calm   4.0 mph 77 % 0.00 in
17:41 59.5 °F 52.7 °F 30.19 in Calm   3.0 mph 78 % 0.00 in
17:46 59.2 °F 52.7 °F 30.19 in Calm   3.0 mph 79 % 0.00 in
17:51 59.0 °F 52.9 °F 30.19 in Calm   1.0 mph 80 % 0.00 in
17:56 58.8 °F 52.7 °F 30.19 in North 1.0 mph 3.0 mph 80 % 0.00 in
18:01 58.6 °F 52.5 °F 30.19 in NW 1.0 mph 3.0 mph 80 % 0.00 in
18:06 58.5 °F 52.7 °F 30.19 in Calm   3.0 mph 81 % 0.00 in
18:11 58.3 °F 52.5 °F 30.20 in Calm   3.0 mph 81 % 0.00 in
18:16 57.9 °F 52.5 °F 30.20 in Calm   3.0 mph 82 % 0.00 in
18:21 57.7 °F 52.3 °F 30.20 in Calm   2.0 mph 82 % 0.00 in
18:26 57.6 °F 52.5 °F 30.20 in NW 1.0 mph 2.0 mph 83 % 0.00 in
18:31 57.6 °F 52.5 °F 30.20 in NNE 1.0 mph 2.0 mph 83 % 0.00 in
18:36 57.4 °F 52.3 °F 30.20 in Calm   3.0 mph 83 % 0.00 in
18:41 57.4 °F 52.5 °F 30.21 in NW 2.0 mph 3.0 mph 84 % 0.00 in
18:46 57.2 °F 52.3 °F 30.21 in Calm   3.0 mph 84 % 0.00 in
18:51 57.0 °F 52.5 °F 30.21 in NW 1.0 mph 3.0 mph 85 % 0.00 in
18:56 56.8 °F 52.3 °F 30.21 in NW 2.0 mph 3.0 mph 85 % 0.00 in
19:01 56.7 °F 52.5 °F 30.21 in NW 1.0 mph 3.0 mph 86 % 0.00 in
19:06 56.7 °F 52.5 °F 30.21 in NNW 3.0 mph 3.0 mph 86 % 0.00 in
19:11 56.5 °F 52.3 °F 30.22 in NNW 2.0 mph 5.0 mph 86 % 0.00 in
19:16 56.5 °F 52.3 °F 30.22 in West 1.0 mph 5.0 mph 86 % 0.00 in
19:21 56.3 °F 52.2 °F 30.22 in NNW 1.0 mph 5.0 mph 86 % 0.00 in
19:26 56.1 °F 52.0 °F 30.22 in NW 1.0 mph 5.0 mph 86 % 0.00 in
19:31 56.1 °F 52.3 °F 30.22 in NNW 2.0 mph 5.0 mph 87 % 0.00 in
19:36 55.9 °F 52.2 °F 30.22 in NW 5.0 mph 5.0 mph 87 % 0.00 in
19:41 55.8 °F 52.0 °F 30.22 in NW 2.0 mph 6.0 mph 87 % 0.00 in
19:46 55.6 °F 51.8 °F 30.22 in NNW 2.0 mph 6.0 mph 87 % 0.00 in
19:51 55.6 °F 51.8 °F 30.22 in NNW 1.0 mph 7.0 mph 87 % 0.00 in
19:56 55.2 °F 51.8 °F 30.22 in NW 1.0 mph 7.0 mph 88 % 0.00 in
20:01 55.2 °F 51.8 °F 30.22 in North 1.0 mph 7.0 mph 88 % 0.00 in
20:06 55.0 °F 51.6 °F 30.22 in NNW 2.0 mph 5.0 mph 88 % 0.00 in
20:11 54.9 °F 51.4 °F 30.22 in NNW 3.0 mph 5.0 mph 88 % 0.00 in
20:16 54.9 °F 51.6 °F 30.22 in Calm   5.0 mph 89 % 0.00 in
20:21 54.7 °F 51.4 °F 30.22 in Calm   5.0 mph 89 % 0.00 in
20:26 54.5 °F 51.3 °F 30.22 in Calm   4.0 mph 89 % 0.00 in
20:27 54.5 °F 51.3 °F 30.22 in NNW 1.0 mph 4.0 mph 89 % 0.00 in
20:32 54.3 °F 51.1 °F 30.22 in Calm   4.0 mph 89 % 0.00 in
20:37 54.1 °F 50.9 °F 30.23 in Calm   4.0 mph 89 % 0.00 in
20:42 54.0 °F 51.1 °F 30.23 in Calm   2.0 mph 90 % 0.00 in
20:47 54.0 °F 51.1 °F 30.23 in Calm   2.0 mph 90 % 0.00 in
20:52 53.8 °F 51.3 °F 30.23 in Calm   2.0 mph 91 % 0.00 in
20:57 53.4 °F 50.9 °F 30.24 in North 1.0 mph 1.0 mph 91 % 0.00 in
21:02 53.4 °F 50.9 °F 30.24 in NW 1.0 mph 2.0 mph 91 % 0.00 in
21:07 53.4 °F 51.1 °F 30.24 in NW 1.0 mph 2.0 mph 92 % 0.00 in
21:12 53.4 °F 51.1 °F 30.24 in Calm   2.0 mph 92 % 0.00 in
21:17 53.4 °F 51.1 °F 30.24 in NW 2.0 mph 2.0 mph 92 % 0.00 in
21:22 53.4 °F 51.1 °F 30.24 in NNW 1.0 mph 3.0 mph 92 % 0.00 in
21:27 53.2 °F 50.9 °F 30.24 in Calm   3.0 mph 92 % 0.00 in
21:32 53.1 °F 50.7 °F 30.25 in Calm   3.0 mph 92 % 0.00 in
21:37 53.1 °F 50.7 °F 30.25 in Calm   2.0 mph 92 % 0.00 in
21:42 52.9 °F 50.5 °F 30.25 in WNW 1.0 mph 2.0 mph 92 % 0.00 in
21:47 52.7 °F 50.4 °F 30.25 in Calm   2.0 mph 92 % 0.00 in
21:52 52.5 °F 50.2 °F 30.25 in Calm   2.0 mph 92 % 0.00 in
21:57 52.3 °F 50.0 °F 30.25 in Calm   1.0 mph 92 % 0.00 in
22:02 52.0 °F 49.6 °F 30.25 in Calm   1.0 mph 92 % 0.00 in
22:07 51.6 °F 49.6 °F 30.25 in Calm     93 % 0.00 in
22:12 51.4 °F 49.5 °F 30.25 in Calm     93 % 0.00 in
22:17 51.3 °F 49.6 °F 30.25 in Calm     94 % 0.00 in
22:22 51.3 °F 49.6 °F 30.25 in Calm   1.0 mph 94 % 0.00 in
22:27 51.3 °F 49.6 °F 30.25 in Calm   1.0 mph 94 % 0.00 in
22:32 51.3 °F 49.6 °F 30.25 in Calm   1.0 mph 94 % 0.00 in
22:37 51.1 °F 49.5 °F 30.24 in Calm   1.0 mph 94 % 0.00 in
22:42 50.9 °F 49.5 °F 30.24 in Calm   1.0 mph 95 % 0.00 in
22:47 50.7 °F 49.3 °F 30.24 in Calm   1.0 mph 95 % 0.00 in
22:52 50.7 °F 49.3 °F 30.24 in Calm   1.0 mph 95 % 0.00 in
22:57 50.5 °F 49.1 °F 30.24 in Calm   1.0 mph 95 % 0.00 in
23:02 50.4 °F 48.9 °F 30.24 in Calm   1.0 mph 95 % 0.00 in
23:07 50.2 °F 48.7 °F 30.24 in Calm   1.0 mph 95 % 0.00 in
23:12 49.8 °F 48.4 °F 30.24 in Calm   1.0 mph 95 % 0.00 in
23:17 49.8 °F 48.4 °F 30.24 in Calm   1.0 mph 95 % 0.00 in
23:22 49.8 °F 48.7 °F 30.24 in Calm   1.0 mph 96 % 0.00 in
23:27 49.6 °F 48.6 °F 30.23 in Calm   1.0 mph 96 % 0.00 in
23:32 49.6 °F 48.6 °F 30.23 in Calm   1.0 mph 96 % 0.00 in
23:37 50.0 °F 48.9 °F 30.23 in Calm   2.0 mph 96 % 0.00 in
23:42 50.0 °F 48.9 °F 30.23 in NNW 1.0 mph 2.0 mph 96 % 0.00 in
23:47 50.2 °F 49.1 °F 30.23 in NW 1.0 mph 2.0 mph 96 % 0.00 in
23:52 50.2 °F 49.1 °F 30.24 in Calm   2.0 mph 96 % 0.00 in
23:57 50.4 °F 49.3 °F 30.24 in Calm   2.0 mph 96 % 0.00 in
Spring, Texas: Villages of Bridgestone
Compliments of Weather Underground - 2.75 mb

Script developed by  Jim McMurry - jmcmurry@mwt.net Adapted for the template by  Wim van der Kuil - Leuven-Template.eu

You find our weather info also at:

UK Metoffice

WeatherCloud

Weather Underground

Mid-South Weather Network

AWEKAS

Citizen Weather Observer Program (CWOP)

HAMweather, WeatherForYou, PWS Weather

Equipment we use:

Weather-station
Davis Vantage Vue

Weather-program
Meteohub

Weather-server
Debian 7.9 x86 (Guest)

Provider
DreamHost

Davis Vantage Vue

Meteohub

Debian 7.9 x86 (Guest)

DreamHost